createdAt,value
2023-04-05T00:00:13.472Z,59.10
2023-04-05T00:02:41.935Z,59.20
2023-04-05T00:05:11.932Z,59.20
2023-04-05T00:07:41.057Z,59.20
2023-04-05T00:10:09.471Z,59.20
2023-04-05T00:12:37.199Z,59.20
2023-04-05T00:15:05.759Z,59.20
2023-04-05T00:17:33.547Z,59.30
2023-04-05T00:20:02.146Z,59.30
2023-04-05T00:22:31.826Z,59.30
2023-04-05T00:25:00.853Z,59.30
2023-04-05T00:27:28.674Z,59.30
2023-04-05T00:29:56.816Z,59.20
2023-04-05T00:32:24.666Z,59.30
2023-04-05T00:34:52.426Z,59.40
2023-04-05T00:37:20.143Z,59.30
2023-04-05T00:39:48.228Z,59.30
2023-04-05T00:42:17.263Z,59.30
2023-04-05T00:44:44.934Z,59.40
2023-04-05T00:47:12.635Z,59.40
2023-04-05T00:49:40.399Z,59.40
2023-04-05T00:52:08.114Z,59.40
2023-04-05T00:54:36.914Z,59.40
2023-04-05T00:57:06.005Z,59.40
2023-04-05T00:59:35.614Z,59.40
2023-04-05T01:02:13.406Z,59.50
2023-04-05T01:04:50.021Z,59.50
2023-04-05T01:07:25.305Z,59.50
2023-04-05T01:09:57.804Z,59.50
2023-04-05T01:12:29.242Z,59.50
2023-04-05T01:14:58.383Z,59.50
2023-04-05T01:17:28.550Z,59.50
2023-04-05T01:20:00.272Z,59.50
2023-04-05T01:23:06.236Z,59.50
2023-04-05T01:26:09.678Z,59.60
2023-04-05T01:28:50.663Z,59.60
2023-04-05T01:31:26.447Z,59.50
2023-04-05T01:34:00.183Z,59.60
2023-04-05T01:36:32.643Z,59.60
2023-04-05T01:39:05.324Z,59.60
2023-04-05T01:41:33.515Z,59.60
2023-04-05T01:44:01.214Z,59.60
2023-04-05T01:46:30.924Z,59.60
2023-04-05T01:48:58.831Z,59.60
2023-04-05T01:51:26.835Z,59.60
2023-04-05T01:53:54.549Z,59.60
2023-04-05T01:56:22.355Z,59.60
2023-04-05T01:58:50.043Z,59.60
2023-04-05T02:01:17.902Z,59.60
2023-04-05T02:03:47.054Z,59.70
2023-04-05T02:06:14.855Z,59.70
2023-04-05T02:08:42.622Z,59.70
2023-04-05T02:11:11.103Z,59.70
2023-04-05T02:13:38.826Z,59.70
2023-04-05T02:16:06.834Z,59.70
2023-04-05T02:18:35.033Z,59.70
2023-04-05T02:21:05.765Z,59.70
2023-04-05T02:23:34.454Z,59.70
2023-04-05T02:26:02.454Z,59.80
2023-04-05T02:28:31.449Z,59.80
2023-04-05T02:30:59.150Z,59.80
2023-04-05T02:33:27.589Z,59.80
2023-04-05T02:35:56.307Z,59.80
2023-04-05T02:38:25.638Z,59.80
2023-04-05T02:40:55.215Z,59.80
2023-04-05T02:43:22.952Z,59.80
2023-04-05T02:45:50.868Z,59.80
2023-04-05T02:48:19.990Z,59.80
2023-04-05T02:50:49.697Z,59.80
2023-04-05T02:53:17.532Z,59.80
2023-04-05T02:55:54.809Z,59.80
2023-04-05T02:58:23.359Z,59.90
2023-04-05T03:00:52.829Z,59.80
2023-04-05T03:03:26.552Z,59.90
2023-04-05T03:06:01.434Z,59.90
2023-04-05T03:08:36.710Z,59.90
2023-04-05T03:11:07.642Z,59.90
2023-04-05T03:13:36.043Z,59.90
2023-04-05T03:16:07.657Z,59.90
2023-04-05T03:18:36.738Z,60.00
2023-04-05T03:21:11.934Z,60.00
2023-04-05T03:23:51.259Z,60.00
2023-04-05T03:26:26.611Z,60.00
2023-04-05T03:28:54.881Z,60.00
2023-04-05T03:31:30.544Z,60.00
2023-04-05T03:34:01.808Z,60.00
2023-04-05T03:36:42.770Z,60.00
2023-04-05T03:39:22.230Z,60.00
2023-04-05T03:41:51.272Z,60.10
2023-04-05T03:44:18.946Z,60.10
2023-04-05T03:46:46.692Z,60.10
2023-04-05T03:49:16.442Z,60.10
2023-04-05T03:51:44.147Z,60.00
2023-04-05T03:54:11.836Z,60.10
2023-04-05T03:56:40.172Z,60.10
2023-04-05T03:59:16.751Z,60.20
2023-04-05T04:01:44.757Z,60.20
2023-04-05T04:04:13.546Z,60.00
2023-04-05T04:06:45.538Z,60.10
2023-04-05T04:09:14.862Z,60.00
2023-04-05T04:11:42.566Z,60.10
2023-04-05T04:14:11.200Z,60.00
2023-04-05T04:16:49.876Z,60.00
2023-04-05T04:19:29.502Z,60.10
2023-04-05T04:22:09.978Z,60.00
2023-04-05T04:24:49.993Z,60.00
2023-04-05T04:27:36.973Z,59.90
2023-04-05T04:30:14.679Z,59.90
2023-04-05T04:32:56.252Z,59.90
2023-04-05T04:35:31.207Z,59.90
2023-04-05T04:38:25.977Z,59.80
2023-04-05T04:41:26.811Z,59.80
2023-04-05T04:44:03.701Z,59.80
2023-04-05T04:46:44.327Z,59.80
2023-04-05T04:49:39.420Z,59.70
2023-04-05T04:52:07.261Z,59.70
2023-04-05T04:54:37.867Z,59.70
2023-04-05T04:57:05.653Z,59.70
2023-04-05T04:59:33.461Z,59.70
2023-04-05T05:02:05.392Z,59.60
2023-04-05T05:04:35.235Z,59.60
2023-04-05T05:07:04.390Z,59.50
2023-04-05T05:09:34.036Z,59.50
2023-04-05T05:12:01.794Z,59.50
2023-04-05T05:14:29.551Z,59.50
2023-04-05T05:16:58.932Z,59.50
2023-04-05T05:19:29.856Z,59.40
2023-04-05T05:21:58.039Z,59.40
2023-04-05T05:24:27.581Z,59.50
2023-04-05T05:26:55.256Z,60.00
2023-04-05T05:29:22.931Z,60.10
2023-04-05T05:31:51.291Z,60.30
2023-04-05T05:34:19.286Z,60.50
2023-04-05T05:36:54.550Z,60.50
2023-04-05T05:39:23.436Z,60.50
2023-04-05T05:41:52.465Z,60.50
2023-04-05T05:44:20.137Z,60.60
2023-04-05T05:46:47.874Z,60.70
2023-04-05T05:49:16.194Z,60.70
2023-04-05T05:51:43.979Z,60.70
2023-04-05T05:54:11.682Z,60.70
2023-04-05T05:56:39.401Z,60.70
2023-04-05T05:59:08.506Z,60.60
2023-04-05T06:01:38.157Z,60.70
2023-04-05T06:04:06.715Z,60.60
2023-04-05T06:06:37.263Z,60.60
2023-04-05T06:09:05.637Z,60.60
2023-04-05T06:11:34.220Z,60.50
2023-04-05T06:14:01.986Z,60.50
2023-04-05T06:16:31.508Z,60.50
2023-04-05T06:18:59.373Z,60.50
2023-04-05T06:21:27.260Z,60.40
2023-04-05T06:23:55.180Z,60.20
2023-04-05T06:26:27.034Z,60.30
2023-04-05T06:28:55.277Z,60.10
2023-04-05T06:31:28.191Z,60.10
2023-04-05T06:33:57.202Z,60.10
2023-04-05T06:36:27.298Z,60.10
2023-04-05T06:38:55.683Z,60.00
2023-04-05T06:41:23.363Z,60.00
2023-04-05T06:43:51.066Z,60.00
2023-04-05T06:46:18.923Z,60.00
2023-04-05T06:48:48.222Z,60.00
2023-04-05T06:51:17.897Z,59.90
2023-04-05T06:53:45.717Z,59.90
2023-04-05T06:56:13.486Z,59.90
2023-04-05T06:58:41.250Z,59.90
2023-04-05T07:01:09.096Z,59.80
2023-04-05T07:03:36.868Z,59.80
2023-04-05T07:06:04.784Z,59.80
2023-04-05T07:08:34.417Z,59.70
2023-04-05T07:11:02.138Z,59.70
2023-04-05T07:13:29.871Z,59.60
2023-04-05T07:16:02.058Z,59.50
2023-04-05T07:18:30.629Z,59.40
2023-04-05T07:21:01.718Z,59.50
2023-04-05T07:23:29.629Z,59.40
2023-04-05T07:26:04.272Z,59.30
2023-04-05T07:28:33.497Z,59.30
2023-04-05T07:31:01.363Z,59.30
2023-04-05T07:33:29.226Z,59.20
2023-04-05T07:35:57.877Z,59.20
2023-04-05T07:38:25.680Z,59.20
2023-04-05T07:40:53.884Z,59.20
2023-04-05T07:43:25.387Z,59.10
2023-04-05T07:45:53.861Z,59.10
2023-04-05T07:48:21.629Z,59.10
2023-04-05T07:50:52.848Z,59.00
2023-04-05T07:53:21.088Z,58.90
2023-04-05T07:55:48.797Z,58.90
2023-04-05T07:58:16.821Z,58.90
2023-04-05T08:00:46.123Z,58.80
2023-04-05T08:03:13.892Z,58.80
2023-04-05T08:05:41.648Z,58.80
2023-04-05T08:08:11.058Z,58.80
2023-04-05T08:10:40.264Z,58.80
2023-04-05T08:13:08.237Z,58.80
2023-04-05T08:15:36.185Z,58.80
2023-04-05T08:18:05.295Z,58.80
2023-04-05T08:20:38.957Z,58.80
2023-04-05T08:23:07.742Z,58.80
2023-04-05T08:25:35.585Z,58.70
2023-04-05T08:28:03.332Z,58.60
2023-04-05T08:30:31.024Z,58.50
2023-04-05T08:32:58.970Z,58.40
2023-04-05T08:35:28.148Z,58.20
2023-04-05T08:37:55.988Z,58.00
2023-04-05T08:40:29.758Z,57.90
2023-04-05T08:43:04.033Z,57.80
2023-04-05T08:45:34.866Z,57.80
2023-04-05T08:48:02.775Z,57.80
2023-04-05T08:50:32.049Z,57.70
2023-04-05T08:52:59.886Z,57.70
2023-04-05T08:55:27.590Z,57.70
2023-04-05T08:58:02.268Z,57.70
2023-04-05T09:00:30.184Z,57.60
2023-04-05T09:03:02.546Z,57.60
2023-04-05T09:05:33.078Z,57.70
2023-04-05T09:08:02.374Z,57.60
2023-04-05T09:10:30.960Z,57.60
2023-04-05T09:12:58.759Z,57.60
2023-04-05T09:15:27.103Z,57.60
2023-04-05T09:17:56.284Z,57.70
2023-04-05T09:20:24.335Z,57.60
2023-04-05T09:22:53.404Z,57.70
2023-04-05T09:25:38.507Z,57.60
2023-04-05T09:28:06.815Z,57.70
2023-04-05T09:30:36.934Z,57.80
2023-04-05T09:33:10.148Z,57.60
2023-04-05T09:35:38.119Z,57.60
2023-04-05T09:38:07.233Z,57.60
2023-04-05T09:40:45.623Z,57.60
2023-04-05T09:43:37.810Z,57.60
2023-04-05T09:46:05.742Z,57.70
2023-04-05T09:48:47.180Z,57.80
2023-04-05T09:51:15.772Z,57.90
2023-04-05T09:54:01.067Z,57.90
2023-04-05T09:56:30.001Z,58.10
2023-04-05T09:59:02.279Z,58.20
2023-04-05T10:01:31.972Z,58.20
2023-04-05T10:04:00.724Z,58.40
2023-04-05T10:06:40.037Z,58.50
2023-04-05T10:09:14.938Z,59.10
2023-04-05T10:11:44.961Z,59.20
2023-04-05T10:14:12.688Z,59.30
2023-04-05T10:16:54.653Z,59.40
2023-04-05T10:19:27.362Z,59.60
2023-04-05T10:21:55.937Z,59.80
2023-04-05T10:24:36.536Z,59.70
2023-04-05T10:27:08.225Z,60.00
2023-04-05T10:29:43.405Z,60.50
2023-04-05T10:32:19.096Z,60.30
2023-04-05T10:34:56.664Z,60.90
2023-04-05T10:37:36.896Z,60.00
2023-04-05T10:40:10.329Z,60.00
2023-04-05T10:42:43.258Z,59.90
2023-04-05T10:45:15.278Z,59.90
2023-04-05T10:47:49.574Z,59.70
2023-04-05T10:50:23.055Z,59.30
2023-04-05T10:52:52.324Z,58.90
2023-04-05T10:55:22.209Z,58.50
2023-04-05T10:57:51.305Z,58.30
2023-04-05T11:00:20.292Z,58.00
2023-04-05T11:02:49.568Z,57.80
2023-04-05T11:05:34.378Z,57.70
2023-04-05T11:08:06.239Z,57.50
2023-04-05T11:10:37.925Z,57.50
2023-04-05T11:13:07.805Z,57.50
2023-04-05T11:15:36.481Z,57.50
2023-04-05T11:18:20.376Z,57.40
2023-04-05T11:20:51.433Z,57.40
2023-04-05T11:23:20.681Z,57.40
2023-04-05T11:25:52.418Z,57.40
2023-04-05T11:28:25.543Z,57.40
2023-04-05T11:30:56.668Z,57.40
2023-04-05T11:33:38.538Z,57.40
2023-04-05T11:36:07.100Z,57.30
2023-04-05T11:38:34.892Z,57.30
2023-04-05T11:41:17.321Z,57.30
2023-04-05T11:43:47.257Z,57.30
2023-04-05T11:46:15.919Z,57.30
2023-04-05T11:48:43.918Z,57.30
2023-04-05T11:51:11.838Z,57.30
2023-04-05T11:53:39.852Z,57.20
2023-04-05T11:56:12.718Z,57.10
2023-04-05T11:58:40.887Z,57.00
2023-04-05T12:01:09.831Z,56.70
2023-04-05T12:03:38.425Z,57.00
2023-04-05T12:06:07.823Z,56.20
2023-04-05T12:08:42.805Z,56.00
2023-04-05T12:11:13.171Z,55.80
2023-04-05T12:13:41.003Z,55.70
2023-04-05T12:16:10.417Z,55.60
2023-04-05T12:18:39.131Z,55.40
2023-04-05T12:21:09.262Z,55.30
2023-04-05T12:23:38.083Z,55.10
2023-04-05T12:26:08.621Z,54.40
2023-04-05T12:28:53.874Z,51.90
2023-04-05T12:31:38.541Z,52.50
2023-04-05T12:34:06.630Z,52.60
2023-04-05T12:36:34.909Z,51.50
2023-04-05T12:39:07.408Z,51.60
2023-04-05T12:41:35.760Z,51.30
2023-04-05T12:44:12.337Z,49.80
2023-04-05T12:46:41.414Z,49.60
2023-04-05T12:49:12.269Z,49.50
2023-04-05T12:51:43.417Z,49.70
2023-04-05T12:54:13.813Z,50.20
2023-04-05T12:56:41.559Z,50.50
2023-04-05T12:59:10.748Z,50.90
2023-04-05T13:01:39.293Z,51.30
2023-04-05T13:04:15.444Z,51.30
2023-04-05T13:06:44.605Z,51.30
2023-04-05T13:09:12.274Z,51.20
2023-04-05T13:11:39.981Z,51.30
2023-04-05T13:14:08.027Z,51.20
2023-04-05T13:16:37.266Z,51.20
2023-04-05T13:19:05.260Z,51.10
2023-04-05T13:21:33.600Z,51.00
2023-04-05T13:24:01.340Z,51.60
2023-04-05T13:26:29.040Z,51.00
2023-04-05T13:28:56.706Z,50.90
2023-04-05T13:31:24.429Z,50.90
2023-04-05T13:33:53.559Z,50.80
2023-04-05T13:36:21.295Z,50.70
2023-04-05T13:38:48.957Z,50.70
2023-04-05T13:41:16.719Z,50.60
2023-04-05T13:43:44.427Z,50.70
2023-04-05T13:46:12.157Z,50.60
2023-04-05T13:48:39.909Z,50.20
2023-04-05T13:51:09.072Z,50.10
2023-04-05T13:53:36.740Z,50.00
2023-04-05T13:56:04.693Z,49.90
2023-04-05T13:58:32.391Z,49.90
2023-04-05T14:01:00.130Z,49.70
2023-04-05T14:03:27.935Z,49.50
2023-04-05T14:05:55.853Z,49.30
2023-04-05T14:08:24.930Z,49.30
2023-04-05T14:10:52.625Z,49.40
2023-04-05T14:13:20.475Z,49.50
2023-04-05T14:15:48.225Z,49.70
2023-04-05T14:18:16.017Z,49.80
2023-04-05T14:20:43.874Z,50.00
2023-04-05T14:23:11.647Z,50.10
2023-04-05T14:25:41.179Z,50.20
2023-04-05T14:28:09.128Z,50.40
2023-04-05T14:30:36.813Z,50.50
2023-04-05T14:33:04.552Z,50.70
2023-04-05T14:35:32.325Z,50.80
2023-04-05T14:38:00.041Z,50.90
2023-04-05T14:40:27.720Z,51.00
2023-04-05T14:42:56.803Z,51.20
2023-04-05T14:45:27.010Z,51.30
2023-04-05T14:47:54.985Z,51.20
2023-04-05T14:50:22.865Z,51.40
2023-04-05T14:52:50.851Z,51.50
2023-04-05T14:55:18.600Z,51.50
2023-04-05T14:57:46.298Z,51.60
2023-04-05T15:00:16.388Z,51.80
2023-04-05T15:02:45.807Z,51.90
2023-04-05T15:05:13.893Z,52.00
2023-04-05T15:07:41.647Z,52.10
2023-04-05T15:10:09.885Z,52.10
2023-04-05T15:12:37.619Z,53.00
2023-04-05T15:15:06.428Z,52.40
2023-04-05T15:17:35.448Z,52.50
2023-04-05T15:20:03.179Z,52.50
2023-04-05T15:22:31.168Z,52.70
2023-04-05T15:24:59.756Z,52.70
2023-04-05T15:27:27.455Z,52.80
2023-04-05T15:29:55.184Z,52.90
2023-04-05T15:32:22.905Z,52.90
2023-04-05T15:34:51.996Z,53.10
2023-04-05T15:37:19.659Z,53.10
2023-04-05T15:39:47.356Z,53.10
2023-04-05T15:42:15.517Z,53.00
2023-04-05T15:44:43.893Z,52.80
2023-04-05T15:47:11.717Z,52.60
2023-04-05T15:49:39.406Z,52.50
2023-04-05T15:52:08.806Z,52.40
2023-04-05T15:54:36.583Z,52.20
2023-04-05T15:57:04.328Z,52.10
2023-04-05T15:59:32.076Z,51.80
2023-04-05T16:01:59.930Z,51.40
2023-04-05T16:04:28.910Z,51.00
2023-04-05T16:06:56.839Z,50.80
2023-04-05T16:09:26.070Z,50.20
2023-04-05T16:11:53.916Z,49.70
2023-04-05T16:14:21.675Z,49.40
2023-04-05T16:16:53.765Z,49.10
2023-04-05T16:19:22.917Z,48.80
2023-04-05T16:21:51.157Z,48.70
2023-04-05T16:24:19.752Z,48.70
2023-04-05T16:26:48.814Z,48.60
2023-04-05T16:29:16.557Z,48.50
2023-04-05T16:31:47.202Z,48.20
2023-04-05T16:34:15.447Z,48.10
2023-04-05T16:36:43.345Z,47.80
2023-04-05T16:39:11.031Z,47.50
2023-04-05T16:41:38.710Z,47.30
2023-04-05T16:44:07.739Z,47.00
2023-04-05T16:46:35.571Z,46.80
2023-04-05T16:49:03.521Z,46.70
2023-04-05T16:51:31.503Z,46.50
2023-04-05T16:53:59.277Z,46.40
2023-04-05T16:56:27.008Z,46.40
2023-04-05T16:58:55.112Z,46.50
2023-04-05T17:01:24.283Z,46.60
2023-04-05T17:03:52.108Z,46.70
2023-04-05T17:06:19.831Z,46.80
2023-04-05T17:08:47.523Z,46.90
2023-04-05T17:11:15.230Z,47.10
2023-04-05T17:13:44.863Z,47.30
2023-04-05T17:16:13.309Z,47.50
2023-04-05T17:18:42.405Z,47.70
2023-04-05T17:21:12.186Z,47.90
2023-04-05T17:23:39.893Z,48.10
2023-04-05T17:26:07.593Z,48.30
2023-04-05T17:28:35.571Z,48.40
2023-04-05T17:31:03.782Z,48.60
2023-04-05T17:33:31.554Z,48.80
2023-04-05T17:36:01.638Z,49.00
2023-04-05T17:38:29.420Z,49.10
2023-04-05T17:40:59.215Z,49.20
2023-04-05T17:43:27.264Z,49.20
2023-04-05T17:45:55.401Z,49.30
2023-04-05T17:48:23.557Z,49.30
2023-04-05T17:50:51.373Z,49.30
2023-04-05T17:53:21.096Z,49.30
2023-04-05T17:55:48.938Z,49.50
2023-04-05T17:58:16.677Z,49.40
2023-04-05T18:00:44.904Z,49.40
2023-04-05T18:03:13.387Z,49.50
2023-04-05T18:05:41.311Z,49.60
2023-04-05T18:08:09.043Z,49.70
2023-04-05T18:10:38.068Z,49.80
2023-04-05T18:13:06.337Z,50.00
2023-04-05T18:15:34.024Z,50.10
2023-04-05T18:18:02.033Z,50.20
2023-04-05T18:20:29.762Z,50.30
2023-04-05T18:22:58.794Z,50.30
2023-04-05T18:25:26.558Z,50.40
2023-04-05T18:27:56.034Z,50.50
2023-04-05T18:30:23.871Z,50.60
2023-04-05T18:32:51.888Z,50.70
2023-04-05T18:35:19.735Z,50.80
2023-04-05T18:37:47.511Z,50.90
2023-04-05T18:40:15.339Z,50.90
2023-04-05T18:42:43.584Z,51.00
2023-04-05T18:45:13.022Z,51.20
2023-04-05T18:47:40.722Z,51.30
2023-04-05T18:50:09.921Z,51.30
2023-04-05T18:52:38.087Z,51.40
2023-04-05T18:55:06.569Z,51.50
2023-04-05T18:57:34.881Z,51.60
2023-04-05T19:00:02.714Z,51.70
2023-04-05T19:02:32.785Z,51.80
2023-04-05T19:05:00.611Z,51.80
2023-04-05T19:07:28.323Z,52.00
2023-04-05T19:09:56.033Z,52.00
2023-04-05T19:12:23.718Z,52.10
2023-04-05T19:14:51.392Z,52.10
2023-04-05T19:17:19.075Z,52.20
2023-04-05T19:19:48.514Z,52.30
2023-04-05T19:22:16.226Z,52.40
2023-04-05T19:24:43.950Z,52.50
2023-04-05T19:27:11.642Z,52.60
2023-04-05T19:29:39.329Z,52.60
2023-04-05T19:32:07.472Z,52.70
2023-04-05T19:34:37.232Z,52.80
2023-04-05T19:37:06.796Z,52.90
2023-04-05T19:39:37.091Z,52.90
2023-04-05T19:42:05.849Z,53.00
2023-04-05T19:44:42.055Z,53.10
2023-04-05T19:47:10.851Z,53.20
2023-04-05T19:49:42.394Z,53.10
2023-04-05T19:52:14.196Z,53.20
2023-04-05T19:54:44.282Z,53.20
2023-04-05T19:57:17.705Z,53.30
2023-04-05T19:59:45.924Z,53.30
2023-04-05T20:02:29.706Z,53.30
2023-04-05T20:04:57.495Z,53.40
2023-04-05T20:07:26.585Z,53.40
2023-04-05T20:09:55.122Z,53.50
2023-04-05T20:12:23.273Z,53.50
2023-04-05T20:14:51.929Z,53.50
2023-04-05T20:17:21.383Z,53.50
2023-04-05T20:19:57.430Z,53.60
2023-04-05T20:22:28.842Z,53.70
2023-04-05T20:24:56.545Z,53.70
2023-04-05T20:27:24.301Z,53.80
2023-04-05T20:29:52.365Z,53.80
2023-04-05T20:32:20.256Z,53.80
2023-04-05T20:34:47.976Z,53.90
2023-04-05T20:37:15.853Z,53.90
2023-04-05T20:39:44.851Z,53.90
2023-04-05T20:42:12.637Z,54.00
2023-04-05T20:44:40.995Z,54.00
2023-04-05T20:47:08.715Z,54.00
2023-04-05T20:49:36.451Z,54.10
2023-04-05T20:52:07.488Z,54.10
2023-04-05T20:54:35.313Z,54.20
2023-04-05T20:57:04.577Z,54.20
2023-04-05T20:59:32.308Z,54.90
2023-04-05T21:02:00.558Z,54.30
2023-04-05T21:04:30.025Z,54.40
2023-04-05T21:06:58.088Z,54.40
2023-04-05T21:09:25.879Z,54.50
2023-04-05T21:11:53.597Z,54.40
2023-04-05T21:14:22.606Z,54.50
2023-04-05T21:16:50.516Z,54.50
2023-04-05T21:19:18.259Z,54.50
2023-04-05T21:21:45.946Z,54.60
2023-04-05T21:24:13.620Z,54.60
2023-04-05T21:26:41.524Z,54.70
2023-04-05T21:29:09.505Z,54.70
2023-04-05T21:31:38.773Z,54.80
2023-04-05T21:34:06.472Z,54.80
2023-04-05T21:36:34.223Z,54.80
2023-04-05T21:39:01.888Z,54.80
2023-04-05T21:41:29.568Z,54.90
2023-04-05T21:43:57.439Z,54.90
2023-04-05T21:46:25.176Z,54.90
2023-04-05T21:48:54.217Z,55.00
2023-04-05T21:51:22.360Z,55.00
2023-04-05T21:53:50.033Z,55.00
2023-04-05T21:56:18.925Z,55.10
2023-04-05T21:58:46.590Z,55.10
2023-04-05T22:01:14.595Z,55.10
2023-04-05T22:03:42.347Z,55.20
2023-04-05T22:06:11.366Z,55.20
2023-04-05T22:08:39.057Z,55.20
2023-04-05T22:11:07.144Z,55.30
2023-04-05T22:13:34.820Z,55.30
2023-04-05T22:16:02.633Z,55.30
2023-04-05T22:18:30.365Z,55.30
2023-04-05T22:20:58.081Z,55.30
2023-04-05T22:23:27.132Z,55.30
2023-04-05T22:25:54.913Z,55.40
2023-04-05T22:28:22.883Z,55.40
2023-04-05T22:30:50.750Z,55.40
2023-04-05T22:33:18.441Z,55.50
2023-04-05T22:35:46.206Z,55.50
2023-04-05T22:38:13.924Z,55.50
2023-04-05T22:40:44.723Z,55.50
2023-04-05T22:43:12.553Z,55.60
2023-04-05T22:45:40.346Z,55.60
2023-04-05T22:48:08.205Z,55.60
2023-04-05T22:50:36.016Z,55.60
2023-04-05T22:53:03.755Z,55.70
2023-04-05T22:55:31.465Z,55.70
2023-04-05T22:58:00.542Z,55.70
2023-04-05T23:00:28.224Z,55.70
2023-04-05T23:02:56.184Z,55.70
2023-04-05T23:05:24.677Z,55.70
2023-04-05T23:07:52.456Z,55.80
2023-04-05T23:10:20.745Z,55.80
2023-04-05T23:12:49.353Z,55.80
2023-04-05T23:15:18.573Z,55.80
2023-04-05T23:17:46.499Z,55.80
2023-04-05T23:20:14.249Z,55.90
2023-04-05T23:22:41.975Z,55.90
2023-04-05T23:25:10.369Z,55.90
2023-04-05T23:27:38.111Z,55.90
2023-04-05T23:30:07.185Z,55.90
2023-04-05T23:32:36.279Z,55.90
2023-04-05T23:35:04.031Z,56.00
2023-04-05T23:37:31.986Z,56.00
2023-04-05T23:39:59.716Z,56.00
2023-04-05T23:42:27.464Z,56.00
2023-04-05T23:44:55.174Z,56.10
2023-04-05T23:47:22.890Z,56.10
2023-04-05T23:49:51.878Z,56.10
2023-04-05T23:52:19.602Z,56.10
2023-04-05T23:54:47.291Z,56.10
2023-04-05T23:57:14.980Z,56.10
2023-04-05T23:59:42.676Z,56.10
